Taylor Fork

This weather station provides wind speed, gust or max wind speed, and wind direction at 9460 ft. near Pika Point above Sunlight Basin.  

This data can be used with temperature and precipitation data from the Carrot Basin SNOTEL site. If the data below is not displayed or up to date, view data here.

Elevation
9460ft
Jump to table bottom
Date Time Temperature
deg F
RH, % Wind Speed Wind Gust Wind Direction
01/30/23 18:00 -6.8 87 12 17 NW - 302
01/30/23 17:00 -5.6 86 11 17 NW - 309
01/30/23 16:00 -4.4 86 11 22 N - 343
01/30/23 15:00 -5.4 87 13 22 N - 350
01/30/23 14:00 -4.4 86 12 21 N - 340
01/30/23 13:00 -4.9 87 11 20 N - 350
01/30/23 12:00 -6.2 86 10 17 N - 354
01/30/23 11:00 -7.0 86 10 17 N - 357
01/30/23 10:00 -8.5 86 9 15 N - 0
01/30/23 09:00 -10.1 86 9 14 N - 1
01/30/23 08:00 -12.4 85 9 16 N - 6
01/30/23 07:00 -13.2 85 10 16 N - 3
01/30/23 06:00 -13.4 85 10 21 N - 6
01/30/23 05:00 -11.5 86 10 19 N - 358
01/30/23 04:00 -10.1 86 10 18 N - 352
01/30/23 03:00 -9.9 86 12 19 N - 354
01/30/23 02:00 -9.6 87 10 14 N - 0
01/30/23 01:00 -12.0 86 11 17 N - 357
01/30/23 00:00 -14.1 85 9 14 N - 3
01/29/23 23:00 -15.0 84 7 15 N - 11
01/29/23 22:00 -16.1 84 11 19 N - 3
01/29/23 21:00 -18.9 84 10 13 N - 0
01/29/23 20:00 -19.6 83 8 12 N - 4
01/29/23 19:00 -19.5 84 6 14 N - 21
01/29/23 18:00 -19.4 84 6 15 NE - 27
01/29/23 17:00 -16.1 84 5 15 N - 18
01/29/23 16:00 -16.2 84 8 20 N - 10
01/29/23 15:00 -15.9 84 8 20 N - 8
01/29/23 14:00 -14.7 84 5 14 N - 17
01/29/23 13:00 -16.4 83 7 19 N - 11
01/29/23 12:00 -18.7 83 4 13 NE - 24
01/29/23 11:00 -19.1 83 4 11 NE - 25
01/29/23 10:00 -18.8 83 3 12 NE - 29
01/29/23 09:00 -20.9 83 4 12 NE - 42
01/29/23 08:00 -24.9 82 3 10 NE - 37
01/29/23 07:00 -25.3 82 3 11 NE - 35
01/29/23 06:00 -24.5 82 5 10 E - 74
01/29/23 05:00 -20.4 83 3 10 NE - 67
01/29/23 04:00 -17.3 84 3 8 NE - 62
01/29/23 03:00 -18.0 84 3 7 NE - 59
01/29/23 02:00 -19.1 84 5 9 E - 81
01/29/23 01:00 -18.8 84 3 7 E - 69
01/29/23 00:00 -18.9 84 3 7 E - 73
01/28/23 23:00 -18.3 84 3 8 NE - 52
01/28/23 22:00 -17.3 84 3 7 NE - 53
01/28/23 21:00 -15.8 85 3 11 NE - 62
01/28/23 20:00 -14.8 85 3 7 NE - 62
01/28/23 19:00 -11.8 86 3 9 NE - 49
01/28/23 18:00 -10.3 87 3 7 NE - 46
01/28/23 17:00 -8.5 87 3 8 NE - 48